sensor_id;sensor_type;location;lat;lon;timestamp;temperature;humidity
45685;DHT22;46836;48.388;16.210;2022-10-16T00:00:57;13.10;99.90
45685;DHT22;46836;48.388;16.210;2022-10-16T00:03:24;13.10;99.90
45685;DHT22;46836;48.388;16.210;2022-10-16T00:05:59;13.10;99.90
45685;DHT22;46836;48.388;16.210;2022-10-16T00:08:27;13.10;99.90
45685;DHT22;46836;48.388;16.210;2022-10-16T00:11:08;13.10;99.90
45685;DHT22;46836;48.388;16.210;2022-10-16T00:13:37;13.10;99.90
45685;DHT22;46836;48.388;16.210;2022-10-16T00:16:07;13.10;99.90
45685;DHT22;46836;48.388;16.210;2022-10-16T00:18:34;13.10;99.90
45685;DHT22;46836;48.388;16.210;2022-10-16T00:21:10;13.10;99.90
45685;DHT22;46836;48.388;16.210;2022-10-16T00:23:38;13.10;99.90
45685;DHT22;46836;48.388;16.210;2022-10-16T00:26:08;13.10;99.90
45685;DHT22;46836;48.388;16.210;2022-10-16T00:28:36;13.10;99.90
45685;DHT22;46836;48.388;16.210;2022-10-16T00:31:08;13.10;99.90
45685;DHT22;46836;48.388;16.210;2022-10-16T00:33:37;13.10;99.90
45685;DHT22;46836;48.388;16.210;2022-10-16T00:36:05;13.10;99.90
45685;DHT22;46836;48.388;16.210;2022-10-16T00:38:32;13.00;99.90
45685;DHT22;46836;48.388;16.210;2022-10-16T00:41:00;13.00;99.90
45685;DHT22;46836;48.388;16.210;2022-10-16T00:43:46;13.00;99.90
45685;DHT22;46836;48.388;16.210;2022-10-16T00:51:37;13.00;99.90
45685;DHT22;46836;48.388;16.210;2022-10-16T00:54:09;13.00;99.90
45685;DHT22;46836;48.388;16.210;2022-10-16T00:56:37;12.90;99.90
45685;DHT22;46836;48.388;16.210;2022-10-16T00:59:10;12.90;99.90
45685;DHT22;46836;48.388;16.210;2022-10-16T01:01:40;13.00;99.90
45685;DHT22;46836;48.388;16.210;2022-10-16T01:04:07;13.00;99.90
45685;DHT22;46836;48.388;16.210;2022-10-16T01:06:36;13.00;99.90
45685;DHT22;46836;48.388;16.210;2022-10-16T01:09:16;13.00;99.90
45685;DHT22;46836;48.388;16.210;2022-10-16T01:12:08;13.10;99.90
45685;DHT22;46836;48.388;16.210;2022-10-16T01:14:54;13.10;99.90
45685;DHT22;46836;48.388;16.210;2022-10-16T01:17:45;13.10;99.90
45685;DHT22;46836;48.388;16.210;2022-10-16T01:20:24;13.20;99.90
45685;DHT22;46836;48.388;16.210;2022-10-16T01:25:58;13.20;99.90
45685;DHT22;46836;48.388;16.210;2022-10-16T01:28:36;13.20;99.90
45685;DHT22;46836;48.388;16.210;2022-10-16T01:31:07;13.20;99.90
45685;DHT22;46836;48.388;16.210;2022-10-16T01:33:45;13.20;99.90
45685;DHT22;46836;48.388;16.210;2022-10-16T01:36:16;13.30;99.90
45685;DHT22;46836;48.388;16.210;2022-10-16T01:38:49;13.20;99.90
45685;DHT22;46836;48.388;16.210;2022-10-16T01:41:26;13.20;99.90
45685;DHT22;46836;48.388;16.210;2022-10-16T01:44:19;13.30;99.90
45685;DHT22;46836;48.388;16.210;2022-10-16T01:46:49;13.30;99.90
45685;DHT22;46836;48.388;16.210;2022-10-16T01:49:18;13.30;99.90
45685;DHT22;46836;48.388;16.210;2022-10-16T01:51:50;13.40;99.90
45685;DHT22;46836;48.388;16.210;2022-10-16T01:54:19;13.40;99.90
45685;DHT22;46836;48.388;16.210;2022-10-16T01:56:49;13.40;99.90
45685;DHT22;46836;48.388;16.210;2022-10-16T01:59:20;13.40;99.90
45685;DHT22;46836;48.388;16.210;2022-10-16T02:01:52;13.50;99.90
45685;DHT22;46836;48.388;16.210;2022-10-16T02:04:26;13.50;99.90
45685;DHT22;46836;48.388;16.210;2022-10-16T02:06:55;13.50;99.90
45685;DHT22;46836;48.388;16.210;2022-10-16T02:09:22;13.50;99.90
45685;DHT22;46836;48.388;16.210;2022-10-16T02:11:51;13.50;99.90
45685;DHT22;46836;48.388;16.210;2022-10-16T02:14:20;13.50;99.90
45685;DHT22;46836;48.388;16.210;2022-10-16T02:16:48;13.50;99.90
45685;DHT22;46836;48.388;16.210;2022-10-16T02:19:17;13.50;99.90
45685;DHT22;46836;48.388;16.210;2022-10-16T02:21:56;13.50;99.90
45685;DHT22;46836;48.388;16.210;2022-10-16T02:25:05;13.50;99.90
45685;DHT22;46836;48.388;16.210;2022-10-16T02:28:07;13.50;99.90
45685;DHT22;46836;48.388;16.210;2022-10-16T02:30:42;13.50;99.90
45685;DHT22;46836;48.388;16.210;2022-10-16T02:33:12;13.50;99.90
45685;DHT22;46836;48.388;16.210;2022-10-16T02:35:41;13.50;99.90
45685;DHT22;46836;48.388;16.210;2022-10-16T02:38:10;13.50;99.90
45685;DHT22;46836;48.388;16.210;2022-10-16T02:40:38;13.50;99.90
45685;DHT22;46836;48.388;16.210;2022-10-16T02:43:06;13.50;99.90
45685;DHT22;46836;48.388;16.210;2022-10-16T02:45:33;13.50;99.90
45685;DHT22;46836;48.388;16.210;2022-10-16T02:48:00;13.50;99.90
45685;DHT22;46836;48.388;16.210;2022-10-16T02:50:27;13.50;99.90
45685;DHT22;46836;48.388;16.210;2022-10-16T02:52:54;13.50;99.90
45685;DHT22;46836;48.388;16.210;2022-10-16T02:55:21;13.50;99.90
45685;DHT22;46836;48.388;16.210;2022-10-16T02:57:48;13.50;99.90
45685;DHT22;46836;48.388;16.210;2022-10-16T03:00:16;13.50;99.90
45685;DHT22;46836;48.388;16.210;2022-10-16T03:02:44;13.50;99.90
45685;DHT22;46836;48.388;16.210;2022-10-16T03:05:11;13.50;99.90
45685;DHT22;46836;48.388;16.210;2022-10-16T03:07:39;13.50;99.90
45685;DHT22;46836;48.388;16.210;2022-10-16T03:10:07;13.50;99.90
45685;DHT22;46836;48.388;16.210;2022-10-16T03:12:34;13.50;99.90
45685;DHT22;46836;48.388;16.210;2022-10-16T03:15:01;13.50;99.90
45685;DHT22;46836;48.388;16.210;2022-10-16T03:17:28;13.60;99.90
45685;DHT22;46836;48.388;16.210;2022-10-16T03:19:55;13.50;99.90
45685;DHT22;46836;48.388;16.210;2022-10-16T03:22:22;13.50;99.90
45685;DHT22;46836;48.388;16.210;2022-10-16T03:24:49;13.60;99.90
45685;DHT22;46836;48.388;16.210;2022-10-16T03:27:16;13.50;99.90
45685;DHT22;46836;48.388;16.210;2022-10-16T03:29:43;13.50;99.90
45685;DHT22;46836;48.388;16.210;2022-10-16T03:32:10;13.50;99.90
45685;DHT22;46836;48.388;16.210;2022-10-16T03:34:37;13.50;99.90
45685;DHT22;46836;48.388;16.210;2022-10-16T03:37:04;13.50;99.90
45685;DHT22;46836;48.388;16.210;2022-10-16T03:39:31;13.50;99.90
45685;DHT22;46836;48.388;16.210;2022-10-16T03:41:58;13.50;99.90
45685;DHT22;46836;48.388;16.210;2022-10-16T03:44:25;13.50;99.90
45685;DHT22;46836;48.388;16.210;2022-10-16T03:46:52;13.50;99.90
45685;DHT22;46836;48.388;16.210;2022-10-16T03:49:19;13.50;99.90
45685;DHT22;46836;48.388;16.210;2022-10-16T03:51:46;13.50;99.90
45685;DHT22;46836;48.388;16.210;2022-10-16T03:54:13;13.50;99.90
45685;DHT22;46836;48.388;16.210;2022-10-16T03:56:40;13.50;99.90
45685;DHT22;46836;48.388;16.210;2022-10-16T03:59:07;13.50;99.90
45685;DHT22;46836;48.388;16.210;2022-10-16T04:01:34;13.50;99.90
45685;DHT22;46836;48.388;16.210;2022-10-16T04:04:01;13.50;99.90
45685;DHT22;46836;48.388;16.210;2022-10-16T04:06:28;13.50;99.90
45685;DHT22;46836;48.388;16.210;2022-10-16T04:08:55;13.50;99.90
45685;DHT22;46836;48.388;16.210;2022-10-16T04:11:23;13.40;99.90
45685;DHT22;46836;48.388;16.210;2022-10-16T04:13:50;13.40;99.90
45685;DHT22;46836;48.388;16.210;2022-10-16T04:16:17;13.40;99.90
45685;DHT22;46836;48.388;16.210;2022-10-16T04:18:44;13.40;99.90
45685;DHT22;46836;48.388;16.210;2022-10-16T04:21:11;13.40;99.90
45685;DHT22;46836;48.388;16.210;2022-10-16T04:23:38;13.40;99.90
45685;DHT22;46836;48.388;16.210;2022-10-16T04:26:05;13.40;99.90
45685;DHT22;46836;48.388;16.210;2022-10-16T04:28:32;13.50;99.90
45685;DHT22;46836;48.388;16.210;2022-10-16T04:30:59;13.50;99.90
45685;DHT22;46836;48.388;16.210;2022-10-16T04:33:26;13.50;99.90
45685;DHT22;46836;48.388;16.210;2022-10-16T04:36:00;13.40;99.90
45685;DHT22;46836;48.388;16.210;2022-10-16T04:38:28;13.40;99.90
45685;DHT22;46836;48.388;16.210;2022-10-16T04:40:55;13.40;99.90
45685;DHT22;46836;48.388;16.210;2022-10-16T04:43:22;13.40;99.90
45685;DHT22;46836;48.388;16.210;2022-10-16T04:45:49;13.40;99.90
45685;DHT22;46836;48.388;16.210;2022-10-16T04:48:19;13.50;99.90
45685;DHT22;46836;48.388;16.210;2022-10-16T04:50:46;13.40;99.90
45685;DHT22;46836;48.388;16.210;2022-10-16T04:53:21;13.50;99.90
45685;DHT22;46836;48.388;16.210;2022-10-16T04:55:49;13.50;99.90
45685;DHT22;46836;48.388;16.210;2022-10-16T04:58:17;13.50;99.90
45685;DHT22;46836;48.388;16.210;2022-10-16T05:00:44;13.50;99.90
45685;DHT22;46836;48.388;16.210;2022-10-16T05:03:13;13.50;99.90
45685;DHT22;46836;48.388;16.210;2022-10-16T05:05:44;13.40;99.90
45685;DHT22;46836;48.388;16.210;2022-10-16T05:08:15;13.40;99.90
45685;DHT22;46836;48.388;16.210;2022-10-16T05:10:44;13.50;99.90
45685;DHT22;46836;48.388;16.210;2022-10-16T05:13:12;13.50;99.90
45685;DHT22;46836;48.388;16.210;2022-10-16T05:15:39;13.40;99.90
45685;DHT22;46836;48.388;16.210;2022-10-16T05:18:07;13.40;99.90
45685;DHT22;46836;48.388;16.210;2022-10-16T05:20:35;13.40;99.90
45685;DHT22;46836;48.388;16.210;2022-10-16T05:23:01;13.40;99.90
45685;DHT22;46836;48.388;16.210;2022-10-16T05:25:29;13.40;99.90
45685;DHT22;46836;48.388;16.210;2022-10-16T05:27:56;13.40;99.90
45685;DHT22;46836;48.388;16.210;2022-10-16T05:30:23;13.30;99.90
45685;DHT22;46836;48.388;16.210;2022-10-16T05:32:50;13.30;99.90
45685;DHT22;46836;48.388;16.210;2022-10-16T05:35:19;13.30;99.90
45685;DHT22;46836;48.388;16.210;2022-10-16T05:37:46;13.30;99.90
45685;DHT22;46836;48.388;16.210;2022-10-16T05:40:14;13.30;99.90
45685;DHT22;46836;48.388;16.210;2022-10-16T05:42:41;13.30;99.90
45685;DHT22;46836;48.388;16.210;2022-10-16T05:45:10;13.30;99.90
45685;DHT22;46836;48.388;16.210;2022-10-16T05:47:38;13.30;99.90
45685;DHT22;46836;48.388;16.210;2022-10-16T05:50:05;13.40;99.90
45685;DHT22;46836;48.388;16.210;2022-10-16T05:52:33;13.40;99.90
45685;DHT22;46836;48.388;16.210;2022-10-16T05:55:03;13.40;99.90
45685;DHT22;46836;48.388;16.210;2022-10-16T05:57:30;13.40;99.90
45685;DHT22;46836;48.388;16.210;2022-10-16T05:59:57;13.50;99.90
45685;DHT22;46836;48.388;16.210;2022-10-16T06:02:24;13.50;99.90
45685;DHT22;46836;48.388;16.210;2022-10-16T06:04:52;13.50;99.90
45685;DHT22;46836;48.388;16.210;2022-10-16T06:07:22;13.50;99.90
45685;DHT22;46836;48.388;16.210;2022-10-16T06:09:51;13.50;99.90
45685;DHT22;46836;48.388;16.210;2022-10-16T06:12:19;13.50;99.90
45685;DHT22;46836;48.388;16.210;2022-10-16T06:14:47;13.60;99.90
45685;DHT22;46836;48.388;16.210;2022-10-16T06:17:15;13.60;99.90
45685;DHT22;46836;48.388;16.210;2022-10-16T06:19:42;13.70;99.90
45685;DHT22;46836;48.388;16.210;2022-10-16T06:22:09;13.70;99.90
45685;DHT22;46836;48.388;16.210;2022-10-16T06:24:36;13.70;99.90
45685;DHT22;46836;48.388;16.210;2022-10-16T06:27:04;13.70;99.90
45685;DHT22;46836;48.388;16.210;2022-10-16T06:29:31;13.70;99.90
45685;DHT22;46836;48.388;16.210;2022-10-16T06:31:59;13.70;99.90
45685;DHT22;46836;48.388;16.210;2022-10-16T06:34:26;13.80;99.90
45685;DHT22;46836;48.388;16.210;2022-10-16T06:36:53;13.80;99.90
45685;DHT22;46836;48.388;16.210;2022-10-16T06:39:20;13.80;99.90
45685;DHT22;46836;48.388;16.210;2022-10-16T06:41:47;13.80;99.90
45685;DHT22;46836;48.388;16.210;2022-10-16T06:44:14;13.80;99.90
45685;DHT22;46836;48.388;16.210;2022-10-16T06:46:41;13.80;99.90
45685;DHT22;46836;48.388;16.210;2022-10-16T06:49:08;13.80;99.90
45685;DHT22;46836;48.388;16.210;2022-10-16T06:51:35;13.80;99.90
45685;DHT22;46836;48.388;16.210;2022-10-16T06:54:09;13.80;99.90
45685;DHT22;46836;48.388;16.210;2022-10-16T06:56:36;13.90;99.90
45685;DHT22;46836;48.388;16.210;2022-10-16T06:59:03;14.00;99.90
45685;DHT22;46836;48.388;16.210;2022-10-16T07:01:30;14.00;99.90
45685;DHT22;46836;48.388;16.210;2022-10-16T07:03:58;13.90;99.90
45685;DHT22;46836;48.388;16.210;2022-10-16T07:06:26;13.90;99.90
45685;DHT22;46836;48.388;16.210;2022-10-16T07:08:54;13.80;99.90
45685;DHT22;46836;48.388;16.210;2022-10-16T07:11:23;13.80;99.90
45685;DHT22;46836;48.388;16.210;2022-10-16T07:13:51;13.80;99.90
45685;DHT22;46836;48.388;16.210;2022-10-16T07:16:26;13.70;99.90
45685;DHT22;46836;48.388;16.210;2022-10-16T07:18:55;13.80;99.90
45685;DHT22;46836;48.388;16.210;2022-10-16T07:21:33;13.80;99.90
45685;DHT22;46836;48.388;16.210;2022-10-16T07:24:06;13.80;99.90
45685;DHT22;46836;48.388;16.210;2022-10-16T07:26:35;13.80;99.90
45685;DHT22;46836;48.388;16.210;2022-10-16T07:29:04;13.80;99.90
45685;DHT22;46836;48.388;16.210;2022-10-16T07:31:32;13.90;99.90
45685;DHT22;46836;48.388;16.210;2022-10-16T07:34:00;14.00;99.90
45685;DHT22;46836;48.388;16.210;2022-10-16T07:36:27;14.00;99.90
45685;DHT22;46836;48.388;16.210;2022-10-16T07:38:54;14.10;99.90
45685;DHT22;46836;48.388;16.210;2022-10-16T07:41:26;14.10;99.90
45685;DHT22;46836;48.388;16.210;2022-10-16T07:43:53;14.20;99.90
45685;DHT22;46836;48.388;16.210;2022-10-16T07:46:22;14.20;99.90
45685;DHT22;46836;48.388;16.210;2022-10-16T07:48:49;14.30;99.90
45685;DHT22;46836;48.388;16.210;2022-10-16T07:51:21;14.30;99.90
45685;DHT22;46836;48.388;16.210;2022-10-16T07:53:49;14.40;99.90
45685;DHT22;46836;48.388;16.210;2022-10-16T07:56:17;14.40;99.90
45685;DHT22;46836;48.388;16.210;2022-10-16T07:58:44;14.50;99.90
45685;DHT22;46836;48.388;16.210;2022-10-16T08:01:14;14.60;99.90
45685;DHT22;46836;48.388;16.210;2022-10-16T08:03:44;14.70;99.90
45685;DHT22;46836;48.388;16.210;2022-10-16T08:06:11;14.70;99.90
45685;DHT22;46836;48.388;16.210;2022-10-16T08:08:38;14.80;99.90
45685;DHT22;46836;48.388;16.210;2022-10-16T08:11:05;14.80;99.90
45685;DHT22;46836;48.388;16.210;2022-10-16T08:13:32;14.80;99.90
45685;DHT22;46836;48.388;16.210;2022-10-16T08:15:59;14.90;99.90
45685;DHT22;46836;48.388;16.210;2022-10-16T08:18:26;15.00;99.90
45685;DHT22;46836;48.388;16.210;2022-10-16T08:20:59;15.00;99.90
45685;DHT22;46836;48.388;16.210;2022-10-16T08:23:28;15.00;99.90
45685;DHT22;46836;48.388;16.210;2022-10-16T08:25:56;14.90;99.90
45685;DHT22;46836;48.388;16.210;2022-10-16T08:28:28;14.90;99.90
45685;DHT22;46836;48.388;16.210;2022-10-16T08:30:55;15.00;99.90
45685;DHT22;46836;48.388;16.210;2022-10-16T08:33:23;15.00;99.90
45685;DHT22;46836;48.388;16.210;2022-10-16T08:35:52;15.00;99.90
45685;DHT22;46836;48.388;16.210;2022-10-16T08:38:20;15.10;99.90
45685;DHT22;46836;48.388;16.210;2022-10-16T08:40:48;15.20;99.90
45685;DHT22;46836;48.388;16.210;2022-10-16T08:43:21;15.20;99.90
45685;DHT22;46836;48.388;16.210;2022-10-16T08:46:15;15.30;99.90
45685;DHT22;46836;48.388;16.210;2022-10-16T08:48:51;15.40;99.90
45685;DHT22;46836;48.388;16.210;2022-10-16T08:51:30;15.40;99.90
45685;DHT22;46836;48.388;16.210;2022-10-16T08:56:32;15.40;99.90
45685;DHT22;46836;48.388;16.210;2022-10-16T08:59:00;15.40;99.90
45685;DHT22;46836;48.388;16.210;2022-10-16T09:01:46;15.50;99.90
45685;DHT22;46836;48.388;16.210;2022-10-16T09:07:04;15.70;99.90
45685;DHT22;46836;48.388;16.210;2022-10-16T09:12:20;15.80;99.90
45685;DHT22;46836;48.388;16.210;2022-10-16T09:17:44;15.90;99.90
45685;DHT22;46836;48.388;16.210;2022-10-16T09:23:08;16.10;99.90
45685;DHT22;46836;48.388;16.210;2022-10-16T09:25:39;16.10;99.90
45685;DHT22;46836;48.388;16.210;2022-10-16T09:28:08;16.20;99.90
45685;DHT22;46836;48.388;16.210;2022-10-16T09:30:37;16.30;99.90
45685;DHT22;46836;48.388;16.210;2022-10-16T09:33:09;16.40;99.90
45685;DHT22;46836;48.388;16.210;2022-10-16T09:35:44;16.50;99.90
45685;DHT22;46836;48.388;16.210;2022-10-16T09:38:31;16.50;99.90
45685;DHT22;46836;48.388;16.210;2022-10-16T09:41:19;16.60;99.90
45685;DHT22;46836;48.388;16.210;2022-10-16T09:43:53;16.50;99.90
45685;DHT22;46836;48.388;16.210;2022-10-16T09:46:25;16.50;99.90
45685;DHT22;46836;48.388;16.210;2022-10-16T09:49:05;16.50;99.90
45685;DHT22;46836;48.388;16.210;2022-10-16T09:51:35;16.60;99.90
45685;DHT22;46836;48.388;16.210;2022-10-16T09:56:36;16.80;99.90
45685;DHT22;46836;48.388;16.210;2022-10-16T09:59:14;16.80;99.90
45685;DHT22;46836;48.388;16.210;2022-10-16T10:01:45;16.90;99.90
45685;DHT22;46836;48.388;16.210;2022-10-16T10:04:13;17.10;99.90
45685;DHT22;46836;48.388;16.210;2022-10-16T10:06:49;17.10;99.90
45685;DHT22;46836;48.388;16.210;2022-10-16T10:09:29;17.30;99.90
45685;DHT22;46836;48.388;16.210;2022-10-16T10:12:03;17.40;99.90
45685;DHT22;46836;48.388;16.210;2022-10-16T10:14:39;17.70;99.90
45685;DHT22;46836;48.388;16.210;2022-10-16T10:17:26;17.70;99.90
45685;DHT22;46836;48.388;16.210;2022-10-16T10:22:44;17.70;99.90
45685;DHT22;46836;48.388;16.210;2022-10-16T10:25:20;17.50;99.90
45685;DHT22;46836;48.388;16.210;2022-10-16T10:28:19;17.30;99.90
45685;DHT22;46836;48.388;16.210;2022-10-16T10:36:39;17.20;99.90
45685;DHT22;46836;48.388;16.210;2022-10-16T10:39:38;17.40;99.90
45685;DHT22;46836;48.388;16.210;2022-10-16T10:42:54;17.60;99.90
45685;DHT22;46836;48.388;16.210;2022-10-16T10:45:47;18.00;99.90
45685;DHT22;46836;48.388;16.210;2022-10-16T10:51:28;18.40;99.90
45685;DHT22;46836;48.388;16.210;2022-10-16T10:54:06;18.60;99.90
45685;DHT22;46836;48.388;16.210;2022-10-16T11:01:58;18.60;99.90
45685;DHT22;46836;48.388;16.210;2022-10-16T11:10:30;18.40;99.90
45685;DHT22;46836;48.388;16.210;2022-10-16T11:13:21;18.40;99.90
45685;DHT22;46836;48.388;16.210;2022-10-16T11:15:55;18.30;99.90
45685;DHT22;46836;48.388;16.210;2022-10-16T11:22:03;18.30;99.90
45685;DHT22;46836;48.388;16.210;2022-10-16T11:30:30;18.20;99.90
45685;DHT22;46836;48.388;16.210;2022-10-16T11:35:43;18.30;99.90
45685;DHT22;46836;48.388;16.210;2022-10-16T11:38:19;18.70;99.90
45685;DHT22;46836;48.388;16.210;2022-10-16T11:40:53;18.90;99.90
45685;DHT22;46836;48.388;16.210;2022-10-16T11:43:33;18.90;99.90
45685;DHT22;46836;48.388;16.210;2022-10-16T11:46:18;18.80;99.90
45685;DHT22;46836;48.388;16.210;2022-10-16T11:49:20;18.80;99.90
45685;DHT22;46836;48.388;16.210;2022-10-16T11:54:59;19.20;99.90
45685;DHT22;46836;48.388;16.210;2022-10-16T11:57:33;19.30;99.90
45685;DHT22;46836;48.388;16.210;2022-10-16T12:00:10;19.40;99.90
45685;DHT22;46836;48.388;16.210;2022-10-16T12:02:50;19.50;99.90
45685;DHT22;46836;48.388;16.210;2022-10-16T12:05:28;19.70;99.90
45685;DHT22;46836;48.388;16.210;2022-10-16T12:08:14;19.80;99.90
45685;DHT22;46836;48.388;16.210;2022-10-16T12:10:45;19.80;99.90
45685;DHT22;46836;48.388;16.210;2022-10-16T12:13:36;19.90;99.90
45685;DHT22;46836;48.388;16.210;2022-10-16T12:18:45;20.20;99.90
45685;DHT22;46836;48.388;16.210;2022-10-16T12:21:13;20.30;99.90
45685;DHT22;46836;48.388;16.210;2022-10-16T12:23:54;20.40;99.90
45685;DHT22;46836;48.388;16.210;2022-10-16T12:26:29;20.40;99.90
45685;DHT22;46836;48.388;16.210;2022-10-16T12:29:29;20.40;99.90
45685;DHT22;46836;48.388;16.210;2022-10-16T12:31:58;20.30;99.90
45685;DHT22;46836;48.388;16.210;2022-10-16T12:34:38;20.20;99.90
45685;DHT22;46836;48.388;16.210;2022-10-16T12:39:49;20.40;99.90
45685;DHT22;46836;48.388;16.210;2022-10-16T12:44:55;20.80;99.90
45685;DHT22;46836;48.388;16.210;2022-10-16T12:49:57;21.20;99.90
45685;DHT22;46836;48.388;16.210;2022-10-16T12:55:05;21.40;99.90
45685;DHT22;46836;48.388;16.210;2022-10-16T13:00:45;21.50;99.90
45685;DHT22;46836;48.388;16.210;2022-10-16T13:03:48;21.50;99.90
45685;DHT22;46836;48.388;16.210;2022-10-16T13:06:46;21.60;99.90
45685;DHT22;46836;48.388;16.210;2022-10-16T13:17:24;21.60;99.90
45685;DHT22;46836;48.388;16.210;2022-10-16T13:20:27;21.50;99.90
45685;DHT22;46836;48.388;16.210;2022-10-16T13:28:28;21.50;99.90
45685;DHT22;46836;48.388;16.210;2022-10-16T13:30:58;21.40;99.90
45685;DHT22;46836;48.388;16.210;2022-10-16T13:33:33;21.30;99.90
45685;DHT22;46836;48.388;16.210;2022-10-16T13:36:02;21.30;99.90
45685;DHT22;46836;48.388;16.210;2022-10-16T13:38:35;21.30;99.90
45685;DHT22;46836;48.388;16.210;2022-10-16T13:41:05;21.30;99.90
45685;DHT22;46836;48.388;16.210;2022-10-16T13:43:36;21.30;99.90
45685;DHT22;46836;48.388;16.210;2022-10-16T13:46:15;21.20;99.90
45685;DHT22;46836;48.388;16.210;2022-10-16T13:48:43;21.30;99.90
45685;DHT22;46836;48.388;16.210;2022-10-16T13:51:16;21.30;99.90
45685;DHT22;46836;48.388;16.210;2022-10-16T13:53:44;21.20;99.90
45685;DHT22;46836;48.388;16.210;2022-10-16T13:56:17;21.20;99.90
45685;DHT22;46836;48.388;16.210;2022-10-16T13:58:44;21.10;99.90
45685;DHT22;46836;48.388;16.210;2022-10-16T14:01:26;21.10;99.90
45685;DHT22;46836;48.388;16.210;2022-10-16T14:04:07;21.10;99.90
45685;DHT22;46836;48.388;16.210;2022-10-16T14:06:36;21.00;99.90
45685;DHT22;46836;48.388;16.210;2022-10-16T14:09:30;21.00;99.90
45685;DHT22;46836;48.388;16.210;2022-10-16T14:12:07;21.00;99.90
45685;DHT22;46836;48.388;16.210;2022-10-16T14:14:41;20.90;99.90
45685;DHT22;46836;48.388;16.210;2022-10-16T14:17:26;20.90;99.90
45685;DHT22;46836;48.388;16.210;2022-10-16T14:19:56;20.90;99.90
45685;DHT22;46836;48.388;16.210;2022-10-16T14:22:40;20.90;99.90
45685;DHT22;46836;48.388;16.210;2022-10-16T14:30:29;20.70;99.90
45685;DHT22;46836;48.388;16.210;2022-10-16T14:33:05;20.80;99.90
45685;DHT22;46836;48.388;16.210;2022-10-16T14:35:35;20.80;99.90
45685;DHT22;46836;48.388;16.210;2022-10-16T14:38:04;20.80;99.90
45685;DHT22;46836;48.388;16.210;2022-10-16T14:40:34;20.80;99.90
45685;DHT22;46836;48.388;16.210;2022-10-16T14:43:03;20.80;99.90
45685;DHT22;46836;48.388;16.210;2022-10-16T14:45:33;20.80;99.90
45685;DHT22;46836;48.388;16.210;2022-10-16T14:48:16;20.80;99.90
45685;DHT22;46836;48.388;16.210;2022-10-16T14:50:45;20.70;99.90
45685;DHT22;46836;48.388;16.210;2022-10-16T14:53:13;20.70;99.90
45685;DHT22;46836;48.388;16.210;2022-10-16T14:55:41;20.70;99.90
45685;DHT22;46836;48.388;16.210;2022-10-16T14:58:15;20.60;99.90
45685;DHT22;46836;48.388;16.210;2022-10-16T15:00:43;20.60;99.90
45685;DHT22;46836;48.388;16.210;2022-10-16T15:03:10;20.50;99.90
45685;DHT22;46836;48.388;16.210;2022-10-16T15:05:37;20.50;99.90
45685;DHT22;46836;48.388;16.210;2022-10-16T15:08:04;20.40;99.90
45685;DHT22;46836;48.388;16.210;2022-10-16T15:10:35;20.40;99.90
45685;DHT22;46836;48.388;16.210;2022-10-16T15:13:04;20.30;99.90
45685;DHT22;46836;48.388;16.210;2022-10-16T15:17:58;20.20;99.90
45685;DHT22;46836;48.388;16.210;2022-10-16T15:20:29;20.20;99.90
45685;DHT22;46836;48.388;16.210;2022-10-16T15:22:57;20.10;99.90
45685;DHT22;46836;48.388;16.210;2022-10-16T15:25:46;20.10;99.90
45685;DHT22;46836;48.388;16.210;2022-10-16T15:28:15;19.90;99.90
45685;DHT22;46836;48.388;16.210;2022-10-16T15:30:42;19.90;99.90
45685;DHT22;46836;48.388;16.210;2022-10-16T15:33:16;19.80;99.90
45685;DHT22;46836;48.388;16.210;2022-10-16T15:35:46;19.70;99.90
45685;DHT22;46836;48.388;16.210;2022-10-16T15:38:16;19.70;99.90
45685;DHT22;46836;48.388;16.210;2022-10-16T15:40:46;19.60;99.90
45685;DHT22;46836;48.388;16.210;2022-10-16T15:43:13;19.50;99.90
45685;DHT22;46836;48.388;16.210;2022-10-16T15:45:40;19.50;99.90
45685;DHT22;46836;48.388;16.210;2022-10-16T15:48:12;19.40;99.90
45685;DHT22;46836;48.388;16.210;2022-10-16T15:50:40;19.30;99.90
45685;DHT22;46836;48.388;16.210;2022-10-16T15:53:07;19.20;99.90
45685;DHT22;46836;48.388;16.210;2022-10-16T15:55:35;19.20;99.90
45685;DHT22;46836;48.388;16.210;2022-10-16T15:58:04;19.10;99.90
45685;DHT22;46836;48.388;16.210;2022-10-16T16:00:32;19.10;99.90
45685;DHT22;46836;48.388;16.210;2022-10-16T16:02:59;19.00;99.90
45685;DHT22;46836;48.388;16.210;2022-10-16T16:05:27;18.90;99.90
45685;DHT22;46836;48.388;16.210;2022-10-16T16:07:54;18.80;99.90
45685;DHT22;46836;48.388;16.210;2022-10-16T16:10:21;18.80;99.90
45685;DHT22;46836;48.388;16.210;2022-10-16T16:12:49;18.70;99.90
45685;DHT22;46836;48.388;16.210;2022-10-16T16:15:21;18.60;99.90
45685;DHT22;46836;48.388;16.210;2022-10-16T16:17:49;18.60;99.90
45685;DHT22;46836;48.388;16.210;2022-10-16T16:20:16;18.50;99.90
45685;DHT22;46836;48.388;16.210;2022-10-16T16:22:43;18.40;99.90
45685;DHT22;46836;48.388;16.210;2022-10-16T16:25:10;18.40;99.90
45685;DHT22;46836;48.388;16.210;2022-10-16T16:27:37;18.30;99.90
45685;DHT22;46836;48.388;16.210;2022-10-16T16:30:06;18.30;99.90
45685;DHT22;46836;48.388;16.210;2022-10-16T16:32:34;18.20;99.90
45685;DHT22;46836;48.388;16.210;2022-10-16T16:35:03;18.10;99.90
45685;DHT22;46836;48.388;16.210;2022-10-16T16:37:31;18.10;99.90
45685;DHT22;46836;48.388;16.210;2022-10-16T16:39:59;18.00;99.90
45685;DHT22;46836;48.388;16.210;2022-10-16T16:42:27;17.90;99.90
45685;DHT22;46836;48.388;16.210;2022-10-16T16:44:54;17.90;99.90
45685;DHT22;46836;48.388;16.210;2022-10-16T16:47:21;17.80;99.90
45685;DHT22;46836;48.388;16.210;2022-10-16T16:49:48;17.80;99.90
45685;DHT22;46836;48.388;16.210;2022-10-16T16:52:16;17.70;99.90
45685;DHT22;46836;48.388;16.210;2022-10-16T16:54:43;17.70;99.90
45685;DHT22;46836;48.388;16.210;2022-10-16T16:57:19;17.60;99.90
45685;DHT22;46836;48.388;16.210;2022-10-16T16:59:49;17.60;99.90
45685;DHT22;46836;48.388;16.210;2022-10-16T17:02:17;17.50;99.90
45685;DHT22;46836;48.388;16.210;2022-10-16T17:04:45;17.50;99.90
45685;DHT22;46836;48.388;16.210;2022-10-16T17:07:12;17.40;99.90
45685;DHT22;46836;48.388;16.210;2022-10-16T17:09:40;17.30;99.90
45685;DHT22;46836;48.388;16.210;2022-10-16T17:12:07;17.30;99.90
45685;DHT22;46836;48.388;16.210;2022-10-16T17:14:38;17.30;99.90
45685;DHT22;46836;48.388;16.210;2022-10-16T17:17:06;17.20;99.90
45685;DHT22;46836;48.388;16.210;2022-10-16T17:19:35;17.20;99.90
45685;DHT22;46836;48.388;16.210;2022-10-16T17:22:03;17.20;99.90